North Menomonie, Wisconsin
Current Conditions -  °F | °C
As of 9:35 AM on Friday 24 Oct 2014 (Local Time) from KLUM Reporting Station
Haze Haze  
Wind Chill: 50°   Ceiling: 200
Heat Index: 50°   Visibility: 5mi
Dew Point: 49°   Wind: 8mph
Humidity: 95%   Direction: 120°ESE
Pressure: 29.96"   Gusts: NA
Location:  44.857°N, 92.0071°W
Report Text: KLUM 241435Z AUTO 12007KT 5SM BR OVC002 10/10 A2996 RMK AO2 T01020095
Loading
Personal Weather Stations






























Interactive Weather Map
Tropical Storm Tracking
New forecast layout! Learn more

10-Day Weather Forecast

Advertisements
Track Severe Weather on mobile